createdAt,value
2023-04-19T00:00:08.493Z,7.20
2023-04-19T00:02:57.872Z,9.20
2023-04-19T00:05:26.481Z,7.80
2023-04-19T00:07:54.817Z,9.00
2023-04-19T00:10:23.424Z,6.20
2023-04-19T00:12:52.105Z,9.00
2023-04-19T00:15:20.500Z,6.80
2023-04-19T00:17:48.960Z,6.50
2023-04-19T00:20:17.254Z,6.40
2023-04-19T00:22:45.515Z,7.50
2023-04-19T00:25:13.729Z,7.00
2023-04-19T00:27:41.861Z,8.90
2023-04-19T00:30:10.752Z,8.40
2023-04-19T00:32:38.946Z,6.90
2023-04-19T00:35:07.812Z,8.00
2023-04-19T00:37:35.988Z,8.50
2023-04-19T00:40:06.422Z,7.40
2023-04-19T00:42:34.485Z,8.80
2023-04-19T00:45:02.573Z,8.30
2023-04-19T00:47:31.660Z,8.20
2023-04-19T00:50:00.033Z,8.50
2023-04-19T00:52:28.203Z,9.10
2023-04-19T00:54:59.136Z,16.70
2023-04-19T00:57:29.032Z,9.60
2023-04-19T00:59:58.256Z,10.40
2023-04-19T01:02:28.698Z,9.40
2023-04-19T01:04:57.872Z,8.70
2023-04-19T01:07:26.581Z,9.40
2023-04-19T01:09:54.680Z,8.90
2023-04-19T01:12:23.310Z,8.70
2023-04-19T01:14:51.324Z,9.20
2023-04-19T01:17:20.918Z,12.70
2023-04-19T01:19:49.067Z,9.80
2023-04-19T01:22:21.631Z,8.90
2023-04-19T01:24:49.760Z,11.60
2023-04-19T01:27:17.809Z,9.30
2023-04-19T01:29:46.158Z,9.20
2023-04-19T01:32:14.460Z,8.90
2023-04-19T01:34:43.012Z,9.20
2023-04-19T01:37:11.200Z,9.50
2023-04-19T01:39:39.259Z,8.10
2023-04-19T01:42:09.088Z,8.30
2023-04-19T01:44:38.163Z,8.60
2023-04-19T01:47:06.379Z,8.50
2023-04-19T01:49:34.607Z,8.10
2023-04-19T01:52:02.861Z,8.00
2023-04-19T01:54:30.956Z,7.60
2023-04-19T01:56:59.320Z,5.70
2023-04-19T01:59:27.409Z,5.80
2023-04-19T02:01:55.471Z,5.50
2023-04-19T02:04:23.668Z,4.30
2023-04-19T02:06:51.830Z,3.90
2023-04-19T02:09:20.389Z,4.30
2023-04-19T02:11:48.494Z,6.00
2023-04-19T02:14:17.157Z,8.40
2023-04-19T02:16:45.782Z,7.50
2023-04-19T02:19:14.197Z,4.60
2023-04-19T02:21:42.256Z,3.80
2023-04-19T02:24:10.275Z,5.40
2023-04-19T02:26:39.898Z,5.00
2023-04-19T02:29:08.051Z,5.40
2023-04-19T02:31:36.661Z,6.10
2023-04-19T02:34:05.003Z,5.30
2023-04-19T02:36:34.716Z,4.90
2023-04-19T02:39:05.861Z,6.50
2023-04-19T02:41:33.961Z,6.70
2023-04-19T02:46:31.680Z,6.80
2023-04-19T02:49:03.732Z,8.10
2023-04-19T02:51:31.938Z,8.10
2023-04-19T02:54:00.559Z,9.40
2023-04-19T02:56:28.790Z,8.50
2023-04-19T02:59:00.518Z,10.90
2023-04-19T03:01:28.947Z,8.20
2023-04-19T03:03:57.548Z,9.20
2023-04-19T03:06:28.844Z,8.20
2023-04-19T03:08:57.718Z,6.80
2023-04-19T03:11:26.080Z,6.90
2023-04-19T03:13:55.231Z,5.90
2023-04-19T03:16:23.441Z,6.00
2023-04-19T03:18:51.819Z,7.30
2023-04-19T03:21:22.044Z,7.60
2023-04-19T03:23:55.568Z,7.00
2023-04-19T03:26:23.977Z,8.60
2023-04-19T03:28:54.814Z,10.50
2023-04-19T03:31:44.297Z,6.20
2023-04-19T03:34:14.425Z,6.70
2023-04-19T03:36:45.229Z,9.70
2023-04-19T03:39:13.500Z,7.60
2023-04-19T03:44:17.628Z,9.30
2023-04-19T03:46:48.700Z,13.40
2023-04-19T03:49:19.326Z,9.30
2023-04-19T03:51:51.360Z,11.60
2023-04-19T03:54:19.441Z,13.40
2023-04-19T03:56:48.180Z,7.50
2023-04-19T03:59:16.502Z,9.20
2023-04-19T04:01:44.701Z,12.10
2023-04-19T04:04:14.533Z,10.60
2023-04-19T04:06:43.198Z,7.00
2023-04-19T04:09:11.393Z,7.30
2023-04-19T04:11:39.607Z,6.30
2023-04-19T04:14:08.248Z,7.50
2023-04-19T04:16:38.630Z,8.40
2023-04-19T04:19:07.738Z,6.90
2023-04-19T04:21:37.626Z,6.60
2023-04-19T04:24:08.048Z,8.90
2023-04-19T04:26:58.138Z,6.80
2023-04-19T04:29:30.055Z,9.90
2023-04-19T04:31:59.709Z,7.80
2023-04-19T04:34:33.159Z,8.20
2023-04-19T04:37:08.959Z,7.70
2023-04-19T04:39:40.003Z,9.90
2023-04-19T04:42:09.128Z,7.40
2023-04-19T04:44:39.098Z,8.20
2023-04-19T04:47:07.961Z,7.50
2023-04-19T04:49:41.059Z,7.20
2023-04-19T04:52:09.689Z,7.20
2023-04-19T04:54:44.518Z,9.80
2023-04-19T04:57:20.883Z,12.00
2023-04-19T04:59:49.577Z,8.50
2023-04-19T05:02:18.841Z,6.70
2023-04-19T05:04:47.347Z,27.90
2023-04-19T05:07:15.844Z,11.10
2023-04-19T05:09:44.004Z,9.30
2023-04-19T05:12:13.548Z,10.70
2023-04-19T05:14:42.091Z,11.00
2023-04-19T05:17:10.467Z,8.90
2023-04-19T05:19:38.545Z,11.30
2023-04-19T05:22:07.954Z,11.40
2023-04-19T05:24:37.104Z,10.60
2023-04-19T05:27:05.616Z,10.90
2023-04-19T05:29:33.889Z,8.80
2023-04-19T05:32:02.002Z,11.00
2023-04-19T05:34:34.029Z,8.20
2023-04-19T05:37:03.332Z,9.80
2023-04-19T05:39:31.703Z,7.40
2023-04-19T05:42:00.512Z,9.00
2023-04-19T05:44:29.054Z,11.00
2023-04-19T05:46:57.165Z,5.30
2023-04-19T05:49:54.402Z,5.20
2023-04-19T05:52:33.331Z,5.50
2023-04-19T05:55:02.619Z,4.60
2023-04-19T05:57:31.107Z,7.60
2023-04-19T06:02:41.804Z,4.90
2023-04-19T06:05:12.406Z,5.50
2023-04-19T06:07:47.315Z,5.20
2023-04-19T06:10:23.809Z,8.50
2023-04-19T06:12:52.070Z,8.20
2023-04-19T06:15:21.084Z,13.30
2023-04-19T06:20:17.599Z,4.60
2023-04-19T06:22:46.267Z,7.70
2023-04-19T06:25:15.272Z,3.40
2023-04-19T06:30:12.565Z,4.50
2023-04-19T06:32:40.993Z,3.00
2023-04-19T06:35:09.857Z,4.90
2023-04-19T06:37:37.978Z,2.20
2023-04-19T06:40:08.411Z,7.20
2023-04-19T06:42:36.689Z,2.00
2023-04-19T06:45:05.730Z,4.70
2023-04-19T06:47:35.520Z,1.80
2023-04-19T06:50:04.395Z,3.00
2023-04-19T06:52:32.427Z,2.30
2023-04-19T06:55:00.529Z,1.30
2023-04-19T06:57:28.738Z,2.80
2023-04-19T06:59:56.914Z,2.00
2023-04-19T07:02:25.262Z,3.60
2023-04-19T07:04:53.716Z,2.30
2023-04-19T07:07:22.239Z,6.50
2023-04-19T07:09:50.922Z,3.00
2023-04-19T07:12:19.000Z,6.50
2023-04-19T07:14:47.474Z,9.40
2023-04-19T07:17:15.545Z,2.00
2023-04-19T07:19:49.003Z,2.40
2023-04-19T07:22:17.417Z,4.00
2023-04-19T07:24:45.488Z,2.60
2023-04-19T07:27:14.980Z,3.40
2023-04-19T07:29:43.385Z,3.10
2023-04-19T07:32:11.653Z,2.70
2023-04-19T07:34:41.766Z,3.50
2023-04-19T07:37:10.596Z,2.90
2023-04-19T07:39:39.657Z,3.90
2023-04-19T07:42:07.717Z,2.50
2023-04-19T07:44:35.999Z,3.00
2023-04-19T07:47:06.114Z,2.60
2023-04-19T07:49:34.572Z,2.40
2023-04-19T07:52:03.014Z,1.90
2023-04-19T07:54:32.402Z,2.50
2023-04-19T07:57:00.405Z,2.50
2023-04-19T07:59:28.829Z,3.70
2023-04-19T08:01:56.944Z,3.10
2023-04-19T08:04:26.018Z,3.30
2023-04-19T08:06:55.295Z,3.20
2023-04-19T08:11:51.439Z,2.60
2023-04-19T08:14:32.299Z,3.80
2023-04-19T08:19:32.233Z,3.20
2023-04-19T08:22:00.526Z,3.80
2023-04-19T08:24:28.695Z,4.10
2023-04-19T08:27:00.070Z,3.60
2023-04-19T08:29:28.518Z,5.30
2023-04-19T08:31:56.701Z,2.90
2023-04-19T08:34:24.941Z,3.80
2023-04-19T08:37:03.508Z,5.40
2023-04-19T08:39:34.485Z,4.80
2023-04-19T08:42:18.163Z,4.70
2023-04-19T08:45:23.247Z,5.50
2023-04-19T08:47:58.840Z,5.20
2023-04-19T08:50:34.709Z,3.60
2023-04-19T08:56:03.426Z,3.30
2023-04-19T09:01:06.030Z,3.80
2023-04-19T09:03:47.345Z,4.40
2023-04-19T09:06:23.689Z,6.00
2023-04-19T09:11:38.962Z,4.20
2023-04-19T09:14:15.943Z,4.20
2023-04-19T09:16:44.912Z,4.60
2023-04-19T09:19:23.439Z,5.50
2023-04-19T09:21:54.981Z,3.90
2023-04-19T09:27:12.338Z,3.90
2023-04-19T09:29:40.902Z,3.80
2023-04-19T09:32:08.923Z,4.20
2023-04-19T09:34:52.225Z,4.00
2023-04-19T09:39:56.332Z,2.80
2023-04-19T09:42:47.471Z,3.50
2023-04-19T09:45:29.047Z,2.80
2023-04-19T09:48:09.609Z,4.60
2023-04-19T09:51:02.316Z,1.80
2023-04-19T09:53:34.779Z,2.60
2023-04-19T09:56:05.491Z,8.20
2023-04-19T09:58:46.875Z,3.20
2023-04-19T10:01:21.782Z,4.90
2023-04-19T10:03:51.567Z,4.00
2023-04-19T10:08:57.543Z,3.90
2023-04-19T10:11:27.672Z,4.20
2023-04-19T10:14:00.143Z,4.70
2023-04-19T10:16:30.945Z,4.40
2023-04-19T10:19:00.015Z,5.20
2023-04-19T10:21:28.868Z,4.00
2023-04-19T10:23:58.788Z,10.50
2023-04-19T10:26:27.600Z,18.40
2023-04-19T10:28:57.400Z,9.80
2023-04-19T10:31:27.027Z,20.40
2023-04-19T10:33:55.489Z,7.70
2023-04-19T10:36:27.773Z,18.60
2023-04-19T10:38:56.114Z,7.30
2023-04-19T10:43:55.130Z,21.60
2023-04-19T10:46:25.673Z,7.70
2023-04-19T10:48:58.225Z,20.80
2023-04-19T10:51:39.410Z,25.60
2023-04-19T10:54:09.444Z,20.10
2023-04-19T10:56:39.443Z,5.00
2023-04-19T10:59:11.793Z,7.10
2023-04-19T11:01:49.258Z,9.60
2023-04-19T11:04:29.966Z,12.90
2023-04-19T11:07:03.528Z,26.30
2023-04-19T11:09:45.992Z,16.90
2023-04-19T11:12:15.065Z,11.90
2023-04-19T11:14:45.496Z,4.40
2023-04-19T11:17:28.404Z,11.80
2023-04-19T11:19:59.544Z,8.00
2023-04-19T11:22:32.449Z,6.50
2023-04-19T11:25:13.511Z,12.00
2023-04-19T11:27:44.203Z,8.60
2023-04-19T11:30:14.735Z,10.40
2023-04-19T11:32:53.151Z,7.30
2023-04-19T11:35:24.554Z,6.60
2023-04-19T11:37:53.969Z,4.90
2023-04-19T11:40:28.619Z,5.00
2023-04-19T11:43:02.236Z,8.90
2023-04-19T11:45:35.830Z,7.60
2023-04-19T11:48:07.352Z,5.10
2023-04-19T11:50:41.840Z,4.50
2023-04-19T11:53:23.822Z,5.60
2023-04-19T11:55:54.782Z,7.70
2023-04-19T11:58:33.509Z,5.70
2023-04-19T12:03:49.373Z,5.30
2023-04-19T12:06:26.851Z,4.80
2023-04-19T12:08:56.298Z,6.10
2023-04-19T12:11:27.027Z,4.20
2023-04-19T12:14:10.257Z,3.80
2023-04-19T12:16:38.885Z,5.30
2023-04-19T12:19:18.244Z,4.40
2023-04-19T12:21:47.495Z,5.60
2023-04-19T12:24:16.900Z,6.40
2023-04-19T12:26:57.078Z,6.30
2023-04-19T12:29:26.959Z,4.90
2023-04-19T12:31:55.168Z,4.20
2023-04-19T12:34:23.393Z,4.00
2023-04-19T12:36:51.801Z,8.00
2023-04-19T12:39:20.069Z,4.90
2023-04-19T12:41:49.063Z,6.20
2023-04-19T12:44:17.052Z,6.20
2023-04-19T12:46:45.393Z,3.50
2023-04-19T12:49:14.158Z,4.00
2023-04-19T12:51:42.906Z,3.40
2023-04-19T12:54:11.153Z,3.30
2023-04-19T12:56:39.148Z,6.00
2023-04-19T12:59:07.326Z,4.20
2023-04-19T13:01:35.898Z,4.00
2023-04-19T13:04:04.388Z,4.40
2023-04-19T13:06:32.830Z,3.50
2023-04-19T13:09:01.539Z,8.00
2023-04-19T13:11:30.086Z,3.90
2023-04-19T13:13:58.178Z,3.80
2023-04-19T13:16:26.222Z,5.10
2023-04-19T13:18:55.316Z,4.20
2023-04-19T13:26:21.529Z,5.00
2023-04-19T13:28:49.922Z,3.40
2023-04-19T13:31:18.193Z,4.90
2023-04-19T13:33:46.727Z,8.70
2023-04-19T13:36:14.741Z,4.40
2023-04-19T13:38:42.773Z,3.90
2023-04-19T13:41:10.872Z,5.00
2023-04-19T13:43:39.314Z,5.50
2023-04-19T13:46:07.423Z,3.60
2023-04-19T13:48:35.560Z,4.00
2023-04-19T13:51:04.448Z,6.20
2023-04-19T13:53:32.763Z,3.60
2023-04-19T13:56:01.346Z,5.00
2023-04-19T13:58:29.356Z,4.60
2023-04-19T14:00:57.823Z,7.10
2023-04-19T14:03:27.303Z,4.10
2023-04-19T14:05:56.943Z,3.80
2023-04-19T14:08:25.136Z,4.00
2023-04-19T14:10:53.225Z,5.00
2023-04-19T14:13:21.590Z,3.90
2023-04-19T14:15:49.647Z,10.30
2023-04-19T14:18:17.837Z,7.10
2023-04-19T14:20:45.846Z,7.70
2023-04-19T14:23:14.491Z,8.40
2023-04-19T14:25:42.968Z,8.40
2023-04-19T14:28:12.990Z,8.70
2023-04-19T14:30:41.059Z,13.40
2023-04-19T14:33:09.221Z,12.40
2023-04-19T14:35:37.311Z,14.60
2023-04-19T14:38:05.428Z,10.60
2023-04-19T14:40:33.669Z,10.70
2023-04-19T14:43:01.899Z,11.60
2023-04-19T14:45:30.094Z,10.10
2023-04-19T14:47:58.325Z,12.10
2023-04-19T14:50:26.875Z,10.80
2023-04-19T14:52:55.026Z,11.20
2023-04-19T14:55:25.033Z,8.00
2023-04-19T14:57:53.159Z,14.40
2023-04-19T15:00:21.526Z,9.20
2023-04-19T15:02:49.829Z,8.50
2023-04-19T15:05:18.663Z,7.50
2023-04-19T15:07:47.149Z,8.50
2023-04-19T15:10:15.342Z,11.20
2023-04-19T15:12:43.689Z,11.20
2023-04-19T15:15:12.085Z,9.00
2023-04-19T15:17:41.012Z,9.70
2023-04-19T15:20:09.719Z,18.70
2023-04-19T15:22:38.443Z,10.70
2023-04-19T15:25:06.807Z,10.70
2023-04-19T15:27:35.183Z,9.80
2023-04-19T15:30:04.339Z,10.40
2023-04-19T15:32:34.511Z,12.00
2023-04-19T15:35:02.637Z,10.20
2023-04-19T15:37:30.790Z,11.30
2023-04-19T15:39:59.129Z,9.60
2023-04-19T15:42:27.398Z,10.50
2023-04-19T15:44:55.497Z,12.90
2023-04-19T15:47:23.914Z,11.90
2023-04-19T15:49:53.045Z,10.10
2023-04-19T15:52:21.863Z,20.20
2023-04-19T15:54:51.239Z,11.50
2023-04-19T15:57:19.515Z,9.10
2023-04-19T15:59:47.631Z,10.10
2023-04-19T16:02:15.980Z,10.80
2023-04-19T16:04:48.299Z,10.10
2023-04-19T16:07:16.508Z,10.90
2023-04-19T16:09:44.573Z,10.90
2023-04-19T16:12:12.658Z,11.70
2023-04-19T16:14:41.006Z,11.50
2023-04-19T16:17:09.369Z,10.20
2023-04-19T16:19:37.369Z,13.00
2023-04-19T16:22:05.852Z,12.80
2023-04-19T16:24:34.165Z,12.50
2023-04-19T16:27:02.832Z,11.40
2023-04-19T16:29:31.508Z,12.30
2023-04-19T16:31:59.553Z,11.60
2023-04-19T16:34:27.711Z,11.70
2023-04-19T16:36:56.340Z,9.00
2023-04-19T16:39:24.801Z,14.40
2023-04-19T16:41:52.889Z,10.60
2023-04-19T16:44:20.958Z,9.70
2023-04-19T16:46:49.116Z,10.40
2023-04-19T16:49:17.860Z,11.60
2023-04-19T16:51:46.510Z,11.60
2023-04-19T16:54:14.778Z,15.70
2023-04-19T16:56:43.011Z,11.20
2023-04-19T16:59:11.211Z,11.80
2023-04-19T17:01:39.536Z,15.50
2023-04-19T17:04:07.971Z,13.40
2023-04-19T17:06:36.447Z,10.20
2023-04-19T17:09:07.994Z,11.70
2023-04-19T17:11:36.387Z,12.20
2023-04-19T17:14:04.654Z,13.20
2023-04-19T17:16:32.722Z,16.10
2023-04-19T17:19:01.149Z,17.90
2023-04-19T17:21:29.578Z,13.80
2023-04-19T17:23:57.959Z,13.80
2023-04-19T17:26:26.035Z,15.60
2023-04-19T17:28:54.308Z,12.60
2023-04-19T17:31:22.633Z,14.80
2023-04-19T17:33:50.958Z,11.00
2023-04-19T17:36:19.043Z,12.10
2023-04-19T17:38:47.156Z,12.80
2023-04-19T17:41:18.048Z,18.00
2023-04-19T17:43:47.645Z,15.10
2023-04-19T17:46:16.192Z,9.40
2023-04-19T17:48:44.234Z,10.60
2023-04-19T17:51:13.812Z,10.90
2023-04-19T17:53:42.127Z,11.60
2023-04-19T17:56:10.263Z,10.50
2023-04-19T17:58:38.432Z,12.60
2023-04-19T18:01:08.967Z,13.10
2023-04-19T18:03:38.207Z,11.50
2023-04-19T18:06:08.598Z,11.20
2023-04-19T18:08:37.080Z,10.90
2023-04-19T18:11:05.432Z,14.30
2023-04-19T18:13:33.430Z,16.40
2023-04-19T18:16:03.137Z,16.60
2023-04-19T18:18:31.701Z,15.30
2023-04-19T18:21:03.839Z,21.60
2023-04-19T18:23:32.878Z,18.60
2023-04-19T18:26:02.872Z,20.90
2023-04-19T18:28:31.589Z,19.30
2023-04-19T18:30:59.778Z,21.30
2023-04-19T18:33:27.880Z,17.90
2023-04-19T18:35:57.934Z,27.00
2023-04-19T18:38:26.130Z,23.30
2023-04-19T18:40:54.369Z,26.50
2023-04-19T18:43:22.661Z,28.60
2023-04-19T18:45:56.826Z,26.20
2023-04-19T18:48:28.176Z,26.60
2023-04-19T18:50:57.549Z,19.80
2023-04-19T18:53:31.614Z,21.10
2023-04-19T18:56:01.016Z,22.60
2023-04-19T18:58:29.801Z,21.10
2023-04-19T19:00:58.765Z,22.50
2023-04-19T19:03:53.992Z,20.80
2023-04-19T19:06:17.679Z,18.30
2023-04-19T19:08:46.352Z,15.00
2023-04-19T19:11:37.412Z,17.00
2023-04-19T19:14:03.034Z,21.00
2023-04-19T19:16:31.901Z,19.20
2023-04-19T19:19:00.154Z,19.40
2023-04-19T19:21:29.378Z,19.60
2023-04-19T19:26:28.791Z,17.20
2023-04-19T19:29:00.849Z,17.70
2023-04-19T19:31:29.172Z,18.50
2023-04-19T19:34:18.213Z,15.00
2023-04-19T19:36:45.494Z,15.30
2023-04-19T19:39:13.534Z,16.40
2023-04-19T19:44:13.424Z,17.10
2023-04-19T19:46:41.664Z,14.90
2023-04-19T19:49:12.866Z,17.60
2023-04-19T19:51:53.208Z,17.90
2023-04-19T19:54:26.395Z,15.80
2023-04-19T19:59:29.983Z,14.60
2023-04-19T20:02:02.152Z,13.10
2023-04-19T20:04:32.085Z,11.50
2023-04-19T20:09:43.867Z,12.00
2023-04-19T20:12:13.657Z,13.00
2023-04-19T20:14:42.059Z,11.70
2023-04-19T20:17:10.528Z,12.30
2023-04-19T20:19:39.954Z,13.60
2023-04-19T20:24:38.136Z,14.90
2023-04-19T20:27:06.316Z,15.30
2023-04-19T20:29:34.389Z,19.80
2023-04-19T20:32:02.479Z,14.20
2023-04-19T20:34:31.551Z,15.50
2023-04-19T20:36:59.731Z,15.90
2023-04-19T20:39:28.000Z,16.60
2023-04-19T20:41:56.376Z,18.60
2023-04-19T20:44:24.547Z,16.50
2023-04-19T20:46:52.580Z,24.50
2023-04-19T20:49:20.591Z,14.40
2023-04-19T20:51:50.030Z,18.70
2023-04-19T20:54:18.806Z,18.00
2023-04-19T20:56:49.765Z,22.00
2023-04-19T20:59:18.029Z,21.80
2023-04-19T21:01:46.454Z,18.60
2023-04-19T21:04:14.829Z,21.50
2023-04-19T21:06:43.037Z,23.90
2023-04-19T21:09:11.416Z,19.90
2023-04-19T21:11:39.430Z,18.80
2023-04-19T21:14:07.744Z,20.80
2023-04-19T21:16:35.811Z,12.20
2023-04-19T21:19:03.890Z,18.80
2023-04-19T21:21:32.573Z,16.80
2023-04-19T21:24:01.076Z,20.40
2023-04-19T21:26:29.139Z,15.30
2023-04-19T21:28:57.239Z,14.70
2023-04-19T21:31:26.158Z,17.60
2023-04-19T21:33:54.173Z,15.50
2023-04-19T21:36:22.175Z,14.00
2023-04-19T21:38:50.419Z,11.40
2023-04-19T21:41:18.434Z,11.30
2023-04-19T21:43:46.647Z,12.10
2023-04-19T21:46:15.033Z,9.70
2023-04-19T21:48:43.020Z,11.00
2023-04-19T21:51:13.441Z,9.70
2023-04-19T21:53:41.589Z,10.40
2023-04-19T21:56:09.793Z,12.90
2023-04-19T21:58:38.047Z,11.10
2023-04-19T22:01:06.766Z,12.70
2023-04-19T22:03:35.152Z,11.50
2023-04-19T22:06:03.792Z,9.80
2023-04-19T22:08:33.021Z,9.50
2023-04-19T22:11:01.679Z,8.00
2023-04-19T22:13:30.768Z,8.20
2023-04-19T22:16:01.322Z,8.30
2023-04-19T22:18:29.666Z,13.30
2023-04-19T22:20:57.851Z,9.40
2023-04-19T22:23:26.095Z,11.00
2023-04-19T22:25:54.510Z,10.40
2023-04-19T22:28:22.674Z,10.70
2023-04-19T22:30:51.346Z,13.30
2023-04-19T22:33:19.936Z,12.40
2023-04-19T22:35:49.027Z,12.90
2023-04-19T22:38:17.302Z,9.40
2023-04-19T22:40:45.599Z,13.60
2023-04-19T22:43:13.739Z,11.20
2023-04-19T22:45:44.593Z,10.50
2023-04-19T22:48:13.273Z,12.10
2023-04-19T22:50:44.592Z,10.60
2023-04-19T22:53:13.826Z,15.00
2023-04-19T22:58:10.987Z,12.30
2023-04-19T23:00:39.568Z,15.30
2023-04-19T23:03:07.875Z,13.50
2023-04-19T23:05:36.345Z,13.60
2023-04-19T23:08:04.851Z,14.30
2023-04-19T23:10:38.262Z,13.00
2023-04-19T23:13:07.001Z,13.90
2023-04-19T23:15:35.134Z,14.50
2023-04-19T23:18:04.003Z,15.20
2023-04-19T23:20:32.415Z,14.20
2023-04-19T23:23:00.958Z,13.80
2023-04-19T23:25:29.382Z,13.40
2023-04-19T23:27:57.555Z,11.30
2023-04-19T23:30:26.035Z,13.50
2023-04-19T23:32:54.125Z,13.60
2023-04-19T23:35:22.484Z,15.90
2023-04-19T23:37:50.689Z,12.50
2023-04-19T23:40:18.930Z,14.30
2023-04-19T23:42:47.362Z,15.40
2023-04-19T23:45:15.686Z,15.70
2023-04-19T23:47:43.790Z,16.10
2023-04-19T23:50:11.830Z,16.80
2023-04-19T23:52:41.134Z,18.20
2023-04-19T23:57:37.506Z,19.20
